West Chicago, IL (60185)

11:12 AM CST die 16o January, anno 2017 (GMT -0600)
West Chicago (Jel Sert) | | Change Station

Elev 774 ft 41.88 °N, 88.20 °W | Updated 7 minutes ago

Rain
Pluvia
35.1 °F
Feels Like 35 °F
N
0.0
Ventus Variabilis Ventus from Eurus
Gusts 7.0 mph

Hodie
High -- | Low -- °F
--% Chance of Precip.
Yesterday
High -- | Low -- °F
Precip. -- in
Pressio 30.22 in
Visibilitas 1.2 milia passuum
Clouds Aequaliter Nubila 500 ft
Frigus Venti 35 °F
Frigus in quo Ros apparet 34 °F
Umor 95%
Rainfall 0.09 in
Snow Depth Not available.
7:17 AM 4:48 PM
Waning Gibbous, 80% visible
METAR KDPA 161652Z 10006KT 1 1/4SM RA BR OVC005 01/00 A3019 RMK AO2 SLP231 P0007 T00110000
Pressio 30.22 in
Visibilitas 1.2 milia passuum
Clouds Aequaliter Nubila 500 ft
Frigus Venti 35 °F
Frigus in quo Ros apparet 34 °F
Umor 95%
Rainfall 0.09 in
Snow Depth Not available.
7:17 AM 4:48 PM
Waning Gibbous, 80% visible
METAR KDPA 161652Z 10006KT 1 1/4SM RA BR OVC005 01/00 A3019 RMK AO2 SLP231 P0007 T00110000

Get Your Daily Forecast Email!

Thanks for signing up!

Be on the lookout for a verification email in your inbox.

You'll start receiving the daily forecast at 8 AM.

×

10-Day Weather Forecast

Almanac

Astronomy

Jan. 16, 2017 Rise Set
Actual Time
Civil Twilight
Nautical Twilight
Astronomical Twilight
Moon
Length Of Visible Light
Length of Day
Tomorrow will be .
, % of the Moon is Illuminated

Today's Extremes

State Highs State Lows

Community

WunderPhotos

Upload Photos

1,962,540 photos uploaded!

WunderBlog® & News

Nearby

Air Quality

  Air Quality AQ Index Pollutant
Not available.

Snow Depth

Station Depth Elevation

Earthquake Activity

City Distance Mag. Time & Date
Minimum magnitude displayed is 2.5.

Coastal Water Temperatures

Locus Calor

Stations

Nearby Weather Stations

Station Location Temp Frigus Venti Frigus in quo Ros apparet Umor Ventus Precip. Elev Renovata Type
                   

Watches & Warnings

There are currently no watches in effect.